Wetterdaten: Woche 23.06.08 - 29.06.08 (KW26)
Datum Zeit Temperatur Luftfeuchte Luftdruck Niederschlag Wind Richtung Sonnenschein Solar Taupunkt Windchill Windben
23.06.2008 00:00 21.1 C 84 % 1015.4 hPa 0.0 l/m 1.6 km/h (1 Bft) O-SO 0.00 h 0 W/m 18.3 C 21.1 C 2.8 km/h (1 Bft)
23.06.2008 01:00 20.4 C 86 % 1015.5 hPa 0.0 l/m 0.3 km/h (0 Bft) O-SO 0.00 h 0 W/m 18.0 C 20.4 C 0.9 km/h (0 Bft)
23.06.2008 02:00 19.6 C 90 % 1016.2 hPa 0.0 l/m 1.4 km/h (1 Bft) O-SO 0.00 h 0 W/m 17.9 C 19.6 C 2.3 km/h (1 Bft)
23.06.2008 03:00 18.9 C 92 % 1016.4 hPa 0.0 l/m 0.4 km/h (0 Bft) O-SO 0.00 h 0 W/m 17.6 C 18.9 C 1.1 km/h (0 Bft)
23.06.2008 04:00 18.4 C 94 % 1016.7 hPa 0.0 l/m 0.4 km/h (0 Bft) O-SO 0.00 h 0 W/m 17.3 C 18.4 C 1.1 km/h (1 Bft)
23.06.2008 05:00 18.1 C 94 % 1017.0 hPa 0.0 l/m 0.4 km/h (0 Bft) O-SO 0.00 h 10 W/m 17.1 C 18.1 C 1.4 km/h (1 Bft)
23.06.2008 06:00 18.2 C 95 % 1017.4 hPa 0.0 l/m 0.4 km/h (0 Bft) O-SO 0.05 h 47 W/m 17.3 C 18.2 C 1.4 km/h (1 Bft)
23.06.2008 07:00 20.0 C 89 % 1017.6 hPa 0.0 l/m 0.3 km/h (0 Bft) O-SO 0.88 h 184 W/m 18.1 C 20.0 C 1.1 km/h (1 Bft)
23.06.2008 08:00 23.2 C 77 % 1017.8 hPa 0.0 l/m 0.3 km/h (0 Bft) O-SO 1.00 h 335 W/m 18.9 C 23.2 C 0.9 km/h (0 Bft)
23.06.2008 09:00 25.1 C 69 % 1017.8 hPa 0.0 l/m 1.7 km/h (1 Bft) W 1.00 h 501 W/m 19.1 C 25.1 C 3.9 km/h (1 Bft)
23.06.2008 10:00 26.7 C 63 % 1017.4 hPa 0.0 l/m 4.0 km/h (1 Bft) W 1.00 h 647 W/m 19.0 C 26.7 C 7.0 km/h (2 Bft)
23.06.2008 11:00 27.9 C 57 % 1017.4 hPa 0.0 l/m 4.0 km/h (1 Bft) W 1.00 h 754 W/m 18.4 C 27.9 C 6.9 km/h (2 Bft)
23.06.2008 12:00 28.9 C 56 % 1017.2 hPa 0.0 l/m 2.4 km/h (1 Bft) O-SO 1.00 h 831 W/m 19.1 C 28.9 C 4.7 km/h (1 Bft)
23.06.2008 13:00 30.3 C 48 % 1016.6 hPa 0.0 l/m 4.8 km/h (1 Bft) W 1.00 h 864 W/m 17.8 C 30.3 C 8.2 km/h (2 Bft)
23.06.2008 14:00 31.2 C 43 % 1015.8 hPa 0.0 l/m 7.0 km/h (2 Bft) W-NW 1.00 h 829 W/m 17.1 C 31.2 C 11.3 km/h (2 Bft)
23.06.2008 15:00 31.7 C 44 % 1015.2 hPa 0.0 l/m 6.1 km/h (2 Bft) W-NW 1.00 h 752 W/m 17.9 C 31.7 C 9.7 km/h (2 Bft)
23.06.2008 16:00 32.0 C 44 % 1015.1 hPa 0.0 l/m 7.8 km/h (2 Bft) W-NW 1.00 h 643 W/m 18.1 C 32.0 C 11.7 km/h (2 Bft)
23.06.2008 17:00 31.8 C 44 % 1014.8 hPa 0.0 l/m 6.4 km/h (2 Bft) W-NW 1.00 h 508 W/m 17.9 C 31.8 C 10.0 km/h (2 Bft)
23.06.2008 18:00 31.7 C 44 % 1014.2 hPa 0.0 l/m 4.0 km/h (1 Bft) W-NW 0.98 h 345 W/m 18.0 C 31.7 C 6.4 km/h (2 Bft)
23.06.2008 19:00 29.7 C 51 % 1014.5 hPa 0.0 l/m 4.2 km/h (1 Bft) W-NW 0.33 h 132 W/m 18.5 C 29.7 C 6.4 km/h (2 Bft)
23.06.2008 20:00 26.7 C 62 % 1014.6 hPa 0.0 l/m 7.0 km/h (2 Bft) O-SO 0.00 h 45 W/m 18.8 C 26.7 C 11.4 km/h (2 Bft)
23.06.2008 21:00 25.5 C 62 % 1015.4 hPa 0.0 l/m 3.6 km/h (1 Bft) NO 0.00 h 9 W/m 17.6 C 25.5 C 8.0 km/h (2 Bft)
23.06.2008 22:00 24.4 C 64 % 1016.2 hPa 0.0 l/m 2.9 km/h (1 Bft) NO 0.00 h 0 W/m 17.2 C 24.4 C 7.0 km/h (2 Bft)
23.06.2008 23:00 23.1 C 72 % 1016.1 hPa 0.0 l/m 1.9 km/h (1 Bft) N-NW 0.00 h 0 W/m 17.8 C 23.1 C 4.2 km/h (1 Bft)
24.06.2008 00:00 21.9 C 78 % 1015.8 hPa 0.0 l/m 0.6 km/h (0 Bft) SO 0.00 h 0 W/m 17.9 C 21.9 C 1.8 km/h (1 Bft)
24.06.2008 01:00 20.9 C 82 % 1015.9 hPa 0.0 l/m 0.6 km/h (0 Bft) SO 0.00 h 0 W/m 17.7 C 20.9 C 1.1 km/h (1 Bft)
24.06.2008 02:00 19.4 C 87 % 1015.7 hPa 0.0 l/m 1.5 km/h (1 Bft) SO 0.00 h 0 W/m 17.2 C 19.4 C 3.1 km/h (1 Bft)
24.06.2008 03:00 18.6 C 90 % 1015.6 hPa 0.0 l/m 0.7 km/h (0 Bft) O-SO 0.00 h 0 W/m 17.0 C 18.6 C 1.8 km/h (1 Bft)
24.06.2008 04:00 18.1 C 92 % 1015.6 hPa 0.0 l/m 0.1 km/h (0 Bft) O-SO 0.00 h 0 W/m 16.8 C 18.1 C 0.8 km/h (0 Bft)
24.06.2008 05:00 17.7 C 95 % 1015.5 hPa 0.0 l/m 0.1 km/h (0 Bft) O-SO 0.05 h 12 W/m 16.8 C 17.7 C 0.5 km/h (0 Bft)
24.06.2008 06:00 18.0 C 95 % 1015.6 hPa 0.0 l/m 0.5 km/h (0 Bft) N 0.00 h 39 W/m 17.2 C 18.0 C 1.1 km/h (0 Bft)
24.06.2008 07:00 18.6 C 93 % 1016.2 hPa 0.0 l/m 0.8 km/h (0 Bft) NW 0.00 h 62 W/m 17.4 C 18.6 C 2.1 km/h (1 Bft)
24.06.2008 08:00 19.3 C 92 % 1016.7 hPa 0.0 l/m 2.9 km/h (1 Bft) O-SO 0.00 h 82 W/m 17.9 C 19.3 C 5.1 km/h (1 Bft)
24.06.2008 09:00 21.3 C 84 % 1016.7 hPa 0.0 l/m 0.7 km/h (0 Bft) S-SO 0.42 h 330 W/m 18.4 C 21.3 C 2.2 km/h (1 Bft)
24.06.2008 10:00 24.2 C 71 % 1016.4 hPa 0.0 l/m 2.3 km/h (1 Bft) SO 0.88 h 616 W/m 18.7 C 24.2 C 4.9 km/h (1 Bft)
24.06.2008 11:00 25.8 C 65 % 1015.9 hPa 0.0 l/m 3.9 km/h (1 Bft) NO 0.50 h 528 W/m 18.8 C 25.8 C 7.9 km/h (2 Bft)
24.06.2008 12:00 24.7 C 66 % 1016.1 hPa 0.0 l/m 2.6 km/h (1 Bft) O-NO 0.15 h 339 W/m 17.9 C 24.7 C 6.1 km/h (2 Bft)
24.06.2008 13:00 24.7 C 68 % 1016.5 hPa 0.0 l/m 3.0 km/h (1 Bft) N-NO 0.32 h 412 W/m 18.5 C 24.7 C 6.3 km/h (2 Bft)
24.06.2008 14:00 25.3 C 68 % 1016.0 hPa 0.0 l/m 2.1 km/h (1 Bft) O-SO 0.22 h 333 W/m 18.8 C 25.3 C 4.8 km/h (1 Bft)
24.06.2008 15:00 26.5 C 61 % 1015.2 hPa 0.0 l/m 3.2 km/h (1 Bft) SO 0.78 h 649 W/m 18.3 C 26.5 C 5.8 km/h (2 Bft)
24.06.2008 16:00 27.5 C 57 % 1014.9 hPa 0.0 l/m 3.6 km/h (1 Bft) SO 0.43 h 388 W/m 18.1 C 27.5 C 6.0 km/h (2 Bft)
24.06.2008 17:00 27.2 C 61 % 1014.2 hPa 0.0 l/m 2.0 km/h (1 Bft) O-SO 0.37 h 301 W/m 19.0 C 27.2 C 4.0 km/h (1 Bft)
24.06.2008 18:00 27.6 C 62 % 1014.0 hPa 0.0 l/m 1.2 km/h (1 Bft) N-NO 0.68 h 278 W/m 19.5 C 27.6 C 3.1 km/h (1 Bft)
24.06.2008 19:00 27.2 C 62 % 1013.8 hPa 0.0 l/m 1.1 km/h (1 Bft) O-SO 0.72 h 173 W/m 19.3 C 27.2 C 3.0 km/h (1 Bft)
24.06.2008 20:00 25.7 C 68 % 1013.8 hPa 0.0 l/m 3.8 km/h (1 Bft) O-SO 0.00 h 53 W/m 19.4 C 25.7 C 6.3 km/h (2 Bft)
24.06.2008 21:00 24.2 C 74 % 1014.1 hPa 0.0 l/m 5.3 km/h (1 Bft) SO 0.00 h 9 W/m 19.2 C 24.2 C 7.8 km/h (2 Bft)
24.06.2008 22:00 23.1 C 77 % 1014.6 hPa 0.0 l/m 1.1 km/h (0 Bft) O-SO 0.00 h 0 W/m 18.9 C 23.1 C 2.2 km/h (1 Bft)
24.06.2008 23:00 22.1 C 82 % 1014.5 hPa 0.0 l/m 0.4 km/h (0 Bft) O 0.00 h 0 W/m 18.8 C 22.1 C 1.6 km/h (1 Bft)
25.06.2008 00:00 20.6 C 88 % 1014.8 hPa 0.0 l/m 0.4 km/h (0 Bft) O 0.00 h 0 W/m 18.6 C 20.6 C 1.1 km/h (0 Bft)
25.06.2008 01:00 19.6 C 91 % 1014.8 hPa 0.0 l/m 0.7 km/h (0 Bft) O 0.00 h 0 W/m 18.1 C 19.6 C 1.8 km/h (1 Bft)
25.06.2008 02:00 18.8 C 94 % 1014.7 hPa 0.0 l/m 2.1 km/h (1 Bft) O 0.00 h 0 W/m 17.8 C 18.8 C 3.5 km/h (1 Bft)
25.06.2008 03:00 18.3 C 95 % 1014.4 hPa 0.0 l/m 1.5 km/h (1 Bft) O-SO 0.00 h 0 W/m 17.4 C 18.3 C 2.8 km/h (1 Bft)
25.06.2008 04:00 17.8 C 96 % 1014.5 hPa 0.0 l/m 1.2 km/h (1 Bft) O-SO 0.00 h 0 W/m 17.1 C 17.8 C 2.3 km/h (1 Bft)
25.06.2008 05:00 17.7 C 97 % 1014.8 hPa 0.0 l/m 0.5 km/h (0 Bft) O-SO 0.00 h 11 W/m 17.2 C 17.7 C 1.6 km/h (1 Bft)
25.06.2008 06:00 17.8 C 97 % 1014.9 hPa 0.0 l/m 0.1 km/h (0 Bft) O-SO 0.05 h 47 W/m 17.3 C 17.8 C 0.5 km/h (0 Bft)
25.06.2008 07:00 19.0 C 94 % 1014.9 hPa 0.0 l/m 0.5 km/h (0 Bft) O-SO 0.43 h 149 W/m 18.0 C 19.0 C 1.4 km/h (1 Bft)
25.06.2008 08:00 21.0 C 85 % 1014.9 hPa 0.0 l/m 0.3 km/h (0 Bft) O-SO 0.43 h 224 W/m 18.4 C 21.0 C 1.4 km/h (1 Bft)
25.06.2008 09:00 23.2 C 74 % 1014.8 hPa 0.0 l/m 1.2 km/h (1 Bft) S 0.68 h 396 W/m 18.3 C 23.2 C 3.0 km/h (1 Bft)
25.06.2008 10:00 25.5 C 65 % 1014.4 hPa 0.0 l/m 2.8 km/h (1 Bft) S-SO 0.80 h 551 W/m 18.3 C 25.5 C 6.2 km/h (2 Bft)
25.06.2008 11:00 27.5 C 56 % 1014.2 hPa 0.0 l/m 4.3 km/h (1 Bft) W 1.00 h 728 W/m 17.8 C 27.5 C 7.5 km/h (2 Bft)
25.06.2008 12:00 28.7 C 50 % 1014.0 hPa 0.0 l/m 9.2 km/h (2 Bft) W 1.00 h 804 W/m 17.1 C 28.7 C 15.2 km/h (3 Bft)
25.06.2008 13:00 29.2 C 50 % 1013.8 hPa 0.0 l/m 10.8 km/h (2 Bft) W 0.93 h 768 W/m 17.9 C 29.2 C 17.8 km/h (3 Bft)
25.06.2008 14:00 29.9 C 51 % 1013.5 hPa 0.0 l/m 12.6 km/h (3 Bft) W 1.00 h 823 W/m 18.5 C 29.9 C 20.7 km/h (4 Bft)
25.06.2008 15:00 30.4 C 47 % 1014.0 hPa 0.0 l/m 15.5 km/h (3 Bft) W 1.00 h 754 W/m 17.8 C 30.4 C 23.5 km/h (4 Bft)
25.06.2008 16:00 30.4 C 42 % 1014.4 hPa 0.0 l/m 17.2 km/h (3 Bft) W 0.93 h 615 W/m 16.1 C 30.4 C 26.4 km/h (4 Bft)
25.06.2008 17:00 29.8 C 45 % 1014.7 hPa 0.0 l/m 18.3 km/h (3 Bft) W 0.95 h 499 W/m 16.4 C 29.8 C 28.4 km/h (4 Bft)
25.06.2008 18:00 28.3 C 52 % 1014.9 hPa 0.0 l/m 18.1 km/h (3 Bft) W-NW 1.00 h 366 W/m 17.4 C 28.3 C 27.6 km/h (4 Bft)
25.06.2008 19:00 27.3 C 56 % 1015.5 hPa 0.0 l/m 14.6 km/h (3 Bft) W 0.97 h 219 W/m 17.5 C 27.3 C 22.7 km/h (4 Bft)
25.06.2008 20:00 25.9 C 61 % 1016.1 hPa 0.0 l/m 11.8 km/h (2 Bft) W 0.32 h 66 W/m 17.9 C 25.9 C 18.7 km/h (3 Bft)
25.06.2008 21:00 24.2 C 64 % 1016.6 hPa 0.0 l/m 8.7 km/h (2 Bft) W-NW 0.25 h 17 W/m 17.0 C 24.2 C 14.3 km/h (3 Bft)
25.06.2008 22:00 23.1 C 66 % 1017.6 hPa 0.0 l/m 10.4 km/h (2 Bft) W 0.00 h 0 W/m 16.3 C 23.1 C 16.9 km/h (3 Bft)
25.06.2008 23:00 21.9 C 69 % 1018.0 hPa 0.0 l/m 6.2 km/h (2 Bft) W 0.00 h 0 W/m 16.0 C 21.9 C 10.5 km/h (2 Bft)
26.06.2008 00:00 21.2 C 72 % 1018.5 hPa 0.0 l/m 1.8 km/h (1 Bft) W 0.00 h 0 W/m 15.8 C 21.2 C 4.1 km/h (1 Bft)
26.06.2008 01:00 20.7 C 74 % 1018.6 hPa 0.0 l/m 1.4 km/h (1 Bft) W 0.00 h 0 W/m 15.8 C 20.7 C 2.7 km/h (1 Bft)
26.06.2008 02:00 20.3 C 76 % 1018.6 hPa 0.0 l/m 1.0 km/h (0 Bft) W-NW 0.00 h 0 W/m 16.0 C 20.3 C 2.1 km/h (1 Bft)
26.06.2008 03:00 20.3 C 77 % 1018.7 hPa 0.0 l/m 0.1 km/h (0 Bft) W-NW 0.00 h 0 W/m 16.0 C 20.3 C 0.8 km/h (0 Bft)
26.06.2008 04:00 20.1 C 79 % 1018.7 hPa 0.0 l/m 0.3 km/h (0 Bft) N-NO 0.00 h 0 W/m 16.2 C 20.1 C 0.9 km/h (0 Bft)
26.06.2008 05:00 19.6 C 79 % 1018.8 hPa 0.0 l/m 0.9 km/h (0 Bft) N-NO 0.00 h 5 W/m 15.9 C 19.6 C 2.2 km/h (1 Bft)
26.06.2008 06:00 19.9 C 71 % 1019.2 hPa 0.0 l/m 2.5 km/h (1 Bft) O 0.00 h 11 W/m 14.3 C 19.9 C 6.0 km/h (2 Bft)
26.06.2008 07:00 19.6 C 71 % 1019.4 hPa 0.0 l/m 2.4 km/h (1 Bft) NO 0.00 h 42 W/m 14.3 C 19.6 C 5.7 km/h (1 Bft)
26.06.2008 08:00 19.7 C 72 % 1019.6 hPa 0.0 l/m 2.4 km/h (1 Bft) N-NO 0.00 h 86 W/m 14.4 C 19.7 C 5.7 km/h (1 Bft)
26.06.2008 09:00 20.0 C 69 % 1019.9 hPa 0.0 l/m 1.6 km/h (1 Bft) N 0.00 h 160 W/m 14.2 C 20.0 C 4.6 km/h (1 Bft)
26.06.2008 10:00 20.8 C 63 % 1019.9 hPa 0.0 l/m 3.6 km/h (1 Bft) NO 0.05 h 311 W/m 13.6 C 20.8 C 8.0 km/h (2 Bft)
26.06.2008 11:00 21.7 C 60 % 1020.0 hPa 0.0 l/m 3.1 km/h (1 Bft) O 0.32 h 411 W/m 13.7 C 21.7 C 6.9 km/h (2 Bft)
26.06.2008 12:00 22.6 C 60 % 1019.7 hPa 0.0 l/m 3.3 km/h (1 Bft) O 0.75 h 524 W/m 14.4 C 22.6 C 7.0 km/h (2 Bft)
26.06.2008 13:00 23.7 C 58 % 1019.4 hPa 0.0 l/m 4.1 km/h (1 Bft) O-SO 0.82 h 610 W/m 15.0 C 23.7 C 7.4 km/h (2 Bft)
26.06.2008 14:00 24.5 C 54 % 1018.9 hPa 0.0 l/m 5.1 km/h (1 Bft) O-SO 0.55 h 608 W/m 14.6 C 24.5 C 8.7 km/h (2 Bft)
26.06.2008 15:00 25.2 C 52 % 1018.4 hPa 0.0 l/m 3.1 km/h (1 Bft) O-SO 0.85 h 700 W/m 14.7 C 25.2 C 5.9 km/h (2 Bft)
26.06.2008 16:00 25.7 C 53 % 1017.9 hPa 0.0 l/m 3.0 km/h (1 Bft) O-SO 0.65 h 475 W/m 15.3 C 25.7 C 5.8 km/h (2 Bft)
26.06.2008 17:00 25.9 C 54 % 1017.6 hPa 0.0 l/m 1.8 km/h (1 Bft) W-NW 0.55 h 418 W/m 15.9 C 25.9 C 3.9 km/h (1 Bft)
26.06.2008 18:00 25.0 C 57 % 1017.7 hPa 0.0 l/m 0.5 km/h (0 Bft) SO 0.10 h 169 W/m 15.8 C 25.0 C 2.0 km/h (1 Bft)
26.06.2008 19:00 24.2 C 63 % 1017.7 hPa 0.0 l/m 1.5 km/h (1 Bft) SO 0.05 h 78 W/m 16.7 C 24.2 C 3.2 km/h (1 Bft)
26.06.2008 20:00 22.6 C 71 % 1017.8 hPa 0.0 l/m 2.9 km/h (1 Bft) SO 0.00 h 33 W/m 17.1 C 22.6 C 4.2 km/h (1 Bft)
26.06.2008 21:00 20.9 C 77 % 1017.9 hPa 0.0 l/m 4.0 km/h (1 Bft) O-SO 0.00 h 7 W/m 16.7 C 20.9 C 5.6 km/h (1 Bft)
26.06.2008 22:00 19.2 C 83 % 1018.0 hPa 0.0 l/m 3.9 km/h (1 Bft) O-SO 0.00 h 0 W/m 16.3 C 19.2 C 5.5 km/h (1 Bft)
26.06.2008 23:00 18.2 C 86 % 1017.9 hPa 0.0 l/m 0.3 km/h (0 Bft) O-SO 0.00 h 0 W/m 15.9 C 18.2 C 0.9 km/h (0 Bft)
27.06.2008 00:00 17.5 C 88 % 1018.0 hPa 0.0 l/m 1.2 km/h (1 Bft) O-SO 0.00 h 0 W/m 15.6 C 17.5 C 1.9 km/h (1 Bft)
27.06.2008 01:00 17.2 C 89 % 1018.3 hPa 0.0 l/m 1.1 km/h (1 Bft) O-SO 0.00 h 0 W/m 15.4 C 17.2 C 1.9 km/h (1 Bft)
27.06.2008 02:00 16.8 C 90 % 1018.3 hPa 0.0 l/m 0.5 km/h (0 Bft) O-SO 0.00 h 0 W/m 15.2 C 16.8 C 1.2 km/h (1 Bft)
27.06.2008 03:00 16.7 C 91 % 1018.2 hPa 0.0 l/m 0.2 km/h (0 Bft) O-SO 0.00 h 0 W/m 15.2 C 16.7 C 0.6 km/h (0 Bft)
27.06.2008 04:00 16.0 C 93 % 1018.4 hPa 0.0 l/m 0.5 km/h (0 Bft) O-SO 0.00 h 0 W/m 14.8 C 16.0 C 0.9 km/h (0 Bft)
27.06.2008 05:00 15.3 C 94 % 1018.5 hPa 0.0 l/m 0.2 km/h (0 Bft) O-SO 0.00 h 8 W/m 14.3 C 15.3 C 0.6 km/h (0 Bft)
27.06.2008 06:00 15.0 C 95 % 1018.7 hPa 0.0 l/m 0.1 km/h (0 Bft) O-SO 0.03 h 39 W/m 14.2 C 15.0 C 0.5 km/h (0 Bft)
27.06.2008 07:00 16.5 C 89 % 1019.0 hPa 0.0 l/m 0.1 km/h (0 Bft) O-SO 0.98 h 179 W/m 14.6 C 16.5 C 0.7 km/h (0 Bft)
27.06.2008 08:00 18.9 C 81 % 1019.2 hPa 0.0 l/m 0.3 km/h (0 Bft) O-SO 0.98 h 338 W/m 15.5 C 18.9 C 1.2 km/h (1 Bft)
27.06.2008 09:00 21.5 C 70 % 1019.4 hPa 0.0 l/m 2.5 km/h (1 Bft) W 0.97 h 474 W/m 15.8 C 21.5 C 4.7 km/h (1 Bft)
27.06.2008 10:00 23.1 C 59 % 1019.6 hPa 0.0 l/m 10.3 km/h (2 Bft) W 1.00 h 620 W/m 14.6 C 23.1 C 17.1 km/h (3 Bft)
27.06.2008 11:00 24.3 C 54 % 1019.5 hPa 0.0 l/m 12.4 km/h (3 Bft) W 0.97 h 773 W/m 14.3 C 24.3 C 20.1 km/h (4 Bft)
27.06.2008 12:00 25.1 C 46 % 1019.5 hPa 0.0 l/m 16.7 km/h (3 Bft) W 1.00 h 858 W/m 12.5 C 25.1 C 25.4 km/h (4 Bft)
27.06.2008 13:00 25.8 C 43 % 1019.5 hPa 0.0 l/m 14.1 km/h (3 Bft) W 0.95 h 862 W/m 12.3 C 25.8 C 22.1 km/h (4 Bft)
27.06.2008 14:00 26.5 C 36 % 1019.2 hPa 0.0 l/m 13.4 km/h (3 Bft) W 1.00 h 852 W/m 10.2 C 26.5 C 21.4 km/h (4 Bft)
27.06.2008 15:00 26.9 C 32 % 1019.0 hPa 0.0 l/m 14.3 km/h (3 Bft) W 1.00 h 782 W/m 8.7 C 26.9 C 22.8 km/h (4 Bft)
27.06.2008 16:00 26.9 C 29 % 1019.0 hPa 0.0 l/m 14.8 km/h (3 Bft) W 1.00 h 674 W/m 7.2 C 26.9 C 23.2 km/h (4 Bft)
27.06.2008 17:00 27.2 C 30 % 1019.0 hPa 0.0 l/m 10.2 km/h (2 Bft) W 1.00 h 531 W/m 8.3 C 27.2 C 16.6 km/h (3 Bft)
27.06.2008 18:00 26.5 C 32 % 1019.0 hPa 0.0 l/m 11.0 km/h (2 Bft) W 1.00 h 372 W/m 8.6 C 26.5 C 17.3 km/h (3 Bft)
27.06.2008 19:00 25.6 C 37 % 1018.8 hPa 0.0 l/m 10.8 km/h (2 Bft) W 1.00 h 212 W/m 9.8 C 25.6 C 16.8 km/h (3 Bft)
27.06.2008 20:00 24.1 C 44 % 1019.2 hPa 0.0 l/m 8.2 km/h (2 Bft) W 0.57 h 75 W/m 10.9 C 24.1 C 13.1 km/h (3 Bft)
27.06.2008 21:00 21.8 C 51 % 1019.9 hPa 0.0 l/m 5.4 km/h (1 Bft) W 0.00 h 10 W/m 11.1 C 21.8 C 9.0 km/h (2 Bft)
27.06.2008 22:00 19.8 C 59 % 1020.7 hPa 0.0 l/m 0.7 km/h (0 Bft) W-NW 0.00 h 0 W/m 11.5 C 19.8 C 1.8 km/h (1 Bft)
27.06.2008 23:00 18.6 C 64 % 1021.2 hPa 0.0 l/m 2.2 km/h (1 Bft) O 0.00 h 0 W/m 11.5 C 18.6 C 3.6 km/h (1 Bft)
28.06.2008 00:00 17.6 C 67 % 1021.5 hPa 0.0 l/m 0.8 km/h (0 Bft) O 0.00 h 0 W/m 11.4 C 17.6 C 2.2 km/h (1 Bft)
28.06.2008 01:00 16.1 C 75 % 1021.3 hPa 0.0 l/m 1.3 km/h (1 Bft) O 0.00 h 0 W/m 11.6 C 16.1 C 2.6 km/h (1 Bft)
28.06.2008 02:00 15.0 C 80 % 1021.2 hPa 0.0 l/m 1.6 km/h (1 Bft) O-SO 0.00 h 0 W/m 11.5 C 15.0 C 2.8 km/h (1 Bft)
28.06.2008 03:00 14.1 C 84 % 1021.3 hPa 0.0 l/m 1.6 km/h (1 Bft) O-SO 0.00 h 0 W/m 11.4 C 14.1 C 2.9 km/h (1 Bft)
28.06.2008 04:00 13.6 C 86 % 1021.2 hPa 0.0 l/m 0.5 km/h (0 Bft) O-SO 0.00 h 0 W/m 11.3 C 13.6 C 1.6 km/h (1 Bft)
28.06.2008 05:00 13.2 C 88 % 1021.6 hPa 0.0 l/m 0.5 km/h (0 Bft) O-SO 0.00 h 8 W/m 11.2 C 13.2 C 1.4 km/h (1 Bft)
28.06.2008 06:00 13.2 C 88 % 1022.0 hPa 0.0 l/m 0.3 km/h (0 Bft) O-SO 0.13 h 37 W/m 11.3 C 13.2 C 1.2 km/h (1 Bft)
28.06.2008 07:00 15.3 C 82 % 1022.2 hPa 0.0 l/m 0.1 km/h (0 Bft) O-SO 1.00 h 187 W/m 12.2 C 15.3 C 0.7 km/h (0 Bft)
28.06.2008 08:00 17.6 C 74 % 1022.3 hPa 0.0 l/m 0.9 km/h (0 Bft) N-NW 1.00 h 345 W/m 12.8 C 17.6 C 2.6 km/h (1 Bft)
28.06.2008 09:00 20.0 C 64 % 1022.1 hPa 0.0 l/m 0.6 km/h (0 Bft) N-NW 1.00 h 504 W/m 13.0 C 20.0 C 1.8 km/h (1 Bft)
28.06.2008 10:00 22.0 C 58 % 1021.7 hPa 0.0 l/m 1.7 km/h (1 Bft) N-NW 1.00 h 650 W/m 13.3 C 22.0 C 4.1 km/h (1 Bft)
28.06.2008 11:00 23.8 C 50 % 1021.3 hPa 0.0 l/m 3.3 km/h (1 Bft) W 1.00 h 764 W/m 12.7 C 23.8 C 6.1 km/h (2 Bft)
28.06.2008 12:00 25.2 C 44 % 1021.0 hPa 0.0 l/m 5.3 km/h (1 Bft) W 1.00 h 842 W/m 12.2 C 25.2 C 9.1 km/h (2 Bft)
28.06.2008 13:00 26.3 C 39 % 1020.4 hPa 0.0 l/m 6.8 km/h (2 Bft) W 1.00 h 868 W/m 11.3 C 26.3 C 11.7 km/h (2 Bft)
28.06.2008 14:00 27.1 C 39 % 1020.1 hPa 0.0 l/m 7.4 km/h (2 Bft) W-SW 1.00 h 844 W/m 12.1 C 27.1 C 12.8 km/h (3 Bft)
28.06.2008 15:00 27.8 C 39 % 1019.6 hPa 0.0 l/m 8.6 km/h (2 Bft) W 1.00 h 777 W/m 12.7 C 27.8 C 13.6 km/h (3 Bft)
28.06.2008 16:00 28.3 C 38 % 1019.1 hPa 0.0 l/m 7.8 km/h (2 Bft) W 1.00 h 668 W/m 12.8 C 28.3 C 12.4 km/h (3 Bft)
28.06.2008 17:00 28.5 C 36 % 1018.8 hPa 0.0 l/m 8.7 km/h (2 Bft) W 1.00 h 532 W/m 11.9 C 28.5 C 14.2 km/h (3 Bft)
28.06.2008 18:00 28.4 C 36 % 1018.3 hPa 0.0 l/m 7.1 km/h (2 Bft) W 1.00 h 379 W/m 11.8 C 28.4 C 12.3 km/h (3 Bft)
28.06.2008 19:00 27.4 C 40 % 1018.2 hPa 0.0 l/m 7.2 km/h (2 Bft) W 1.00 h 218 W/m 12.4 C 27.4 C 11.9 km/h (2 Bft)
28.06.2008 20:00 25.8 C 47 % 1018.4 hPa 0.0 l/m 2.5 km/h (1 Bft) W-SW 0.57 h 76 W/m 13.5 C 25.8 C 4.8 km/h (1 Bft)
28.06.2008 21:00 23.4 C 55 % 1018.8 hPa 0.0 l/m 1.4 km/h (1 Bft) W-NW 0.02 h 10 W/m 13.9 C 23.4 C 3.3 km/h (1 Bft)
28.06.2008 22:00 21.6 C 64 % 1019.3 hPa 0.0 l/m 2.1 km/h (1 Bft) O-NO 0.00 h 0 W/m 14.4 C 21.6 C 3.6 km/h (1 Bft)
28.06.2008 23:00 19.8 C 71 % 1019.4 hPa 0.0 l/m 1.9 km/h (1 Bft) O-SO 0.00 h 0 W/m 14.4 C 19.8 C 3.4 km/h (1 Bft)
29.06.2008 00:00 18.3 C 78 % 1019.5 hPa 0.0 l/m 1.8 km/h (1 Bft) O 0.00 h 0 W/m 14.3 C 18.3 C 3.0 km/h (1 Bft)
29.06.2008 01:00 17.4 C 82 % 1019.5 hPa 0.0 l/m 0.5 km/h (0 Bft) O-SO 0.00 h 0 W/m 14.2 C 17.4 C 0.8 km/h (0 Bft)
29.06.2008 02:00 16.7 C 84 % 1019.4 hPa 0.0 l/m 1.1 km/h (1 Bft) O-SO 0.00 h 0 W/m 14.0 C 16.7 C 2.1 km/h (1 Bft)
29.06.2008 03:00 15.9 C 87 % 1019.2 hPa 0.0 l/m 0.2 km/h (0 Bft) O-SO 0.00 h 0 W/m 13.8 C 15.9 C 0.7 km/h (0 Bft)
29.06.2008 04:00 15.4 C 89 % 1018.9 hPa 0.0 l/m 0.1 km/h (0 Bft) O-SO 0.00 h 0 W/m 13.6 C 15.4 C 0.5 km/h (0 Bft)
29.06.2008 05:00 15.0 C 90 % 1018.8 hPa 0.0 l/m 0.5 km/h (0 Bft) O-SO 0.00 h 8 W/m 13.4 C 15.0 C 1.8 km/h (1 Bft)
29.06.2008 06:00 15.0 C 90 % 1019.0 hPa 0.0 l/m 0.2 km/h (0 Bft) O-SO 0.05 h 33 W/m 13.4 C 15.0 C 0.9 km/h (0 Bft)
29.06.2008 07:00 17.1 C 84 % 1018.9 hPa 0.0 l/m 0.1 km/h (0 Bft) O-SO 0.98 h 186 W/m 14.4 C 17.1 C 0.6 km/h (0 Bft)
29.06.2008 08:00 19.6 C 76 % 1018.8 hPa 0.0 l/m 0.7 km/h (0 Bft) NO 1.00 h 343 W/m 15.2 C 19.6 C 2.2 km/h (1 Bft)
29.06.2008 09:00 22.1 C 67 % 1018.7 hPa 0.0 l/m 1.2 km/h (1 Bft) N-NO 1.00 h 504 W/m 15.7 C 22.1 C 3.0 km/h (1 Bft)
29.06.2008 10:00 24.6 C 58 % 1018.2 hPa 0.0 l/m 1.9 km/h (1 Bft) W 1.00 h 647 W/m 15.7 C 24.6 C 3.9 km/h (1 Bft)
29.06.2008 11:00 26.6 C 52 % 1017.6 hPa 0.0 l/m 2.3 km/h (1 Bft) W 1.00 h 761 W/m 15.8 C 26.6 C 4.7 km/h (1 Bft)
29.06.2008 12:00 27.9 C 48 % 1017.3 hPa 0.0 l/m 3.6 km/h (1 Bft) W-NW 1.00 h 836 W/m 15.8 C 27.9 C 6.1 km/h (2 Bft)
29.06.2008 13:00 29.1 C 44 % 1016.9 hPa 0.0 l/m 4.5 km/h (1 Bft) N 1.00 h 861 W/m 15.7 C 29.1 C 7.3 km/h (2 Bft)
29.06.2008 14:00 30.3 C 41 % 1016.5 hPa 0.0 l/m 6.8 km/h (2 Bft) W 1.00 h 846 W/m 15.4 C 30.3 C 10.9 km/h (2 Bft)
29.06.2008 15:00 31.0 C 40 % 1015.8 hPa 0.0 l/m 7.2 km/h (2 Bft) W 1.00 h 777 W/m 15.8 C 31.0 C 11.7 km/h (2 Bft)
29.06.2008 16:00 31.4 C 40 % 1015.2 hPa 0.0 l/m 7.3 km/h (2 Bft) W 1.00 h 657 W/m 16.2 C 31.4 C 11.8 km/h (2 Bft)
29.06.2008 17:00 30.9 C 42 % 1014.8 hPa 0.0 l/m 8.9 km/h (2 Bft) W 1.00 h 521 W/m 16.3 C 30.9 C 14.1 km/h (3 Bft)
29.06.2008 18:00 30.2 C 42 % 1014.4 hPa 0.0 l/m 8.8 km/h (2 Bft) W 1.00 h 372 W/m 15.7 C 30.2 C 15.0 km/h (3 Bft)
29.06.2008 19:00 29.3 C 45 % 1014.1 hPa 0.0 l/m 10.8 km/h (2 Bft) W 0.92 h 264 W/m 16.1 C 29.3 C 17.8 km/h (3 Bft)
29.06.2008 20:00 27.9 C 49 % 1014.4 hPa 0.0 l/m 10.1 km/h (2 Bft) W 1.00 h 139 W/m 16.0 C 27.9 C 16.3 km/h (3 Bft)
29.06.2008 21:00 26.4 C 54 % 1014.7 hPa 0.0 l/m 3.7 km/h (1 Bft) W 0.28 h 39 W/m 16.4 C 26.4 C 6.2 km/h (2 Bft)
29.06.2008 22:00 25.1 C 61 % 1015.6 hPa 0.0 l/m 0.5 km/h (0 Bft) W-NW 0.00 h 0 W/m 17.0 C 25.1 C 1.3 km/h (1 Bft)
29.06.2008 23:00 24.0 C 63 % 1016.5 hPa 0.0 l/m 3.5 km/h (1 Bft) SO 0.00 h 0 W/m 16.6 C 24.0 C 7.4 km/h (2 Bft)
Min-Datum _ 28.06.08 27.06.08 25.06.08 - 23.06.08 - - - 27.06.08 28.06.08 23.06.08
_ Min-Zeit 06:00 16:40 14:15 - 00:00 - - - 16:46 06:01 00:00
Minimum _ 12.7 C 26 % 1013.4 hPa - 0.0 km/h (0 Bft) - - - 5.7 C 12.7 C 0.0 km/h (0 Bft)
Max-Datum _ 23.06.08 25.06.08 28.06.08 23.06.08 25.06.08 - 23.06.08 26.06.08 23.06.08 23.06.08 25.06.08
_ Max-Zeit 16:53 04:37 08:30 00:00 18:04 - 06:50 14:33 12:49 16:53 18:04
Maximum _ 32.3 C 97 % 1022.5 hPa 0.0 l/m 31.3 km/h
W-NW (5 Bft)
- 0.02 h 1030 W/m 20.8 C 32.3 C 48.7 km/h
W (6 Bft)
Durchschnitt _ 22.9 C 67 % 1017.4 hPa #0.0 l/m 3.9 km/h (1 Bft) W #75:36 h 394 W/m 15.6 C 22.9 C 6.8 km/h (2 Bft)
© Kaiko 2008